sensor_id;sensor_type;location;lat;lon;timestamp;P1;durP1;ratioP1;P2;durP2;ratioP2
77078;SDS011;66004;55.096;38.760;2023-04-21T00:01:50;13.32;;;5.45;;
77078;SDS011;66004;55.096;38.760;2023-04-21T00:04:17;9.48;;;5.18;;
77078;SDS011;66004;55.096;38.760;2023-04-21T00:06:43;12.43;;;6.03;;
77078;SDS011;66004;55.096;38.760;2023-04-21T00:11:35;12.25;;;5.00;;
77078;SDS011;66004;55.096;38.760;2023-04-21T00:16:26;20.65;;;5.43;;
77078;SDS011;66004;55.096;38.760;2023-04-21T00:21:17;23.85;;;5.80;;
77078;SDS011;66004;55.096;38.760;2023-04-21T00:23:42;17.67;;;5.95;;
77078;SDS011;66004;55.096;38.760;2023-04-21T00:28:33;13.40;;;6.50;;
77078;SDS011;66004;55.096;38.760;2023-04-21T00:33:24;15.02;;;5.97;;
77078;SDS011;66004;55.096;38.760;2023-04-21T00:35:50;14.32;;;6.10;;
77078;SDS011;66004;55.096;38.760;2023-04-21T00:38:15;18.67;;;6.25;;
77078;SDS011;66004;55.096;38.760;2023-04-21T00:40:41;16.50;;;6.47;;
77078;SDS011;66004;55.096;38.760;2023-04-21T00:45:32;19.85;;;6.10;;
77078;SDS011;66004;55.096;38.760;2023-04-21T00:47:58;18.98;;;6.18;;
77078;SDS011;66004;55.096;38.760;2023-04-21T00:52:49;11.95;;;5.85;;
77078;SDS011;66004;55.096;38.760;2023-04-21T00:55:14;16.30;;;5.95;;
77078;SDS011;66004;55.096;38.760;2023-04-21T00:57:40;18.58;;;7.38;;
77078;SDS011;66004;55.096;38.760;2023-04-21T01:00:06;14.80;;;6.53;;
77078;SDS011;66004;55.096;38.760;2023-04-21T01:02:36;18.20;;;6.65;;
77078;SDS011;66004;55.096;38.760;2023-04-21T01:05:06;13.73;;;6.63;;
77078;SDS011;66004;55.096;38.760;2023-04-21T01:07:33;13.45;;;6.22;;
77078;SDS011;66004;55.096;38.760;2023-04-21T01:12:24;12.15;;;6.10;;
77078;SDS011;66004;55.096;38.760;2023-04-21T01:14:49;12.68;;;6.45;;
77078;SDS011;66004;55.096;38.760;2023-04-21T01:17:15;14.95;;;6.63;;
77078;SDS011;66004;55.096;38.760;2023-04-21T01:19:43;15.98;;;6.55;;
77078;SDS011;66004;55.096;38.760;2023-04-21T01:22:10;12.23;;;6.18;;
77078;SDS011;66004;55.096;38.760;2023-04-21T01:24:37;14.55;;;6.63;;
77078;SDS011;66004;55.096;38.760;2023-04-21T01:27:08;15.63;;;7.05;;
77078;SDS011;66004;55.096;38.760;2023-04-21T01:29:38;12.75;;;6.53;;
77078;SDS011;66004;55.096;38.760;2023-04-21T01:32:13;12.98;;;6.55;;
77078;SDS011;66004;55.096;38.760;2023-04-21T01:34:40;14.18;;;6.50;;
77078;SDS011;66004;55.096;38.760;2023-04-21T01:37:07;15.27;;;5.70;;
77078;SDS011;66004;55.096;38.760;2023-04-21T01:39:36;14.50;;;5.55;;
77078;SDS011;66004;55.096;38.760;2023-04-21T01:42:02;16.23;;;5.32;;
77078;SDS011;66004;55.096;38.760;2023-04-21T01:46:53;11.48;;;5.07;;
77078;SDS011;66004;55.096;38.760;2023-04-21T01:49:19;12.98;;;5.30;;
77078;SDS011;66004;55.096;38.760;2023-04-21T01:54:10;15.63;;;5.20;;
77078;SDS011;66004;55.096;38.760;2023-04-21T01:56:36;17.00;;;5.32;;
77078;SDS011;66004;55.096;38.760;2023-04-21T02:01:28;12.32;;;6.43;;
77078;SDS011;66004;55.096;38.760;2023-04-21T02:03:53;20.30;;;5.93;;
77078;SDS011;66004;55.096;38.760;2023-04-21T02:06:19;21.40;;;6.93;;
77078;SDS011;66004;55.096;38.760;2023-04-21T02:08:45;16.95;;;6.95;;
77078;SDS011;66004;55.096;38.760;2023-04-21T02:11:10;16.67;;;6.50;;
77078;SDS011;66004;55.096;38.760;2023-04-21T02:13:35;24.98;;;7.18;;
77078;SDS011;66004;55.096;38.760;2023-04-21T02:16:01;18.60;;;6.03;;
77078;SDS011;66004;55.096;38.760;2023-04-21T02:18:27;17.38;;;6.30;;
77078;SDS011;66004;55.096;38.760;2023-04-21T02:20:54;11.57;;;6.03;;
77078;SDS011;66004;55.096;38.760;2023-04-21T02:23:20;12.40;;;6.47;;
77078;SDS011;66004;55.096;38.760;2023-04-21T02:25:46;17.95;;;6.40;;
77078;SDS011;66004;55.096;38.760;2023-04-21T02:28:11;17.67;;;6.50;;
77078;SDS011;66004;55.096;38.760;2023-04-21T02:30:37;14.38;;;6.63;;
77078;SDS011;66004;55.096;38.760;2023-04-21T02:33:02;15.05;;;5.90;;
77078;SDS011;66004;55.096;38.760;2023-04-21T02:35:28;19.80;;;6.13;;
77078;SDS011;66004;55.096;38.760;2023-04-21T02:37:53;18.98;;;7.00;;
77078;SDS011;66004;55.096;38.760;2023-04-21T02:42:45;14.70;;;5.68;;
77078;SDS011;66004;55.096;38.760;2023-04-21T02:45:10;11.77;;;5.63;;
77078;SDS011;66004;55.096;38.760;2023-04-21T02:52:27;13.18;;;5.57;;
77078;SDS011;66004;55.096;38.760;2023-04-21T02:54:53;15.90;;;5.50;;
77078;SDS011;66004;55.096;38.760;2023-04-21T02:57:18;14.75;;;5.80;;
77078;SDS011;66004;55.096;38.760;2023-04-21T02:59:43;14.15;;;5.07;;
77078;SDS011;66004;55.096;38.760;2023-04-21T03:02:09;17.02;;;5.13;;
77078;SDS011;66004;55.096;38.760;2023-04-21T03:04:35;9.07;;;4.38;;
77078;SDS011;66004;55.096;38.760;2023-04-21T03:07:01;16.60;;;4.72;;
77078;SDS011;66004;55.096;38.760;2023-04-21T03:09:27;7.10;;;4.25;;
77078;SDS011;66004;55.096;38.760;2023-04-21T03:14:18;8.77;;;4.07;;
77078;SDS011;66004;55.096;38.760;2023-04-21T03:16:43;14.30;;;3.90;;
77078;SDS011;66004;55.096;38.760;2023-04-21T03:19:09;12.40;;;3.50;;
77078;SDS011;66004;55.096;38.760;2023-04-21T03:21:37;12.60;;;3.40;;
77078;SDS011;66004;55.096;38.760;2023-04-21T03:24:04;12.50;;;4.10;;
77078;SDS011;66004;55.096;38.760;2023-04-21T03:26:30;6.32;;;3.05;;
77078;SDS011;66004;55.096;38.760;2023-04-21T03:28:56;10.10;;;3.00;;
77078;SDS011;66004;55.096;38.760;2023-04-21T03:31:21;8.65;;;3.60;;
77078;SDS011;66004;55.096;38.760;2023-04-21T03:33:47;7.72;;;3.28;;
77078;SDS011;66004;55.096;38.760;2023-04-21T03:36:12;14.98;;;3.60;;
77078;SDS011;66004;55.096;38.760;2023-04-21T03:38:38;8.85;;;2.83;;
77078;SDS011;66004;55.096;38.760;2023-04-21T03:41:03;14.48;;;4.13;;
77078;SDS011;66004;55.096;38.760;2023-04-21T03:45:54;7.35;;;3.15;;
77078;SDS011;66004;55.096;38.760;2023-04-21T03:48:20;10.10;;;3.10;;
77078;SDS011;66004;55.096;38.760;2023-04-21T03:50:45;6.20;;;2.85;;
77078;SDS011;66004;55.096;38.760;2023-04-21T03:53:11;15.30;;;3.10;;
77078;SDS011;66004;55.096;38.760;2023-04-21T03:55:36;9.98;;;3.00;;
77078;SDS011;66004;55.096;38.760;2023-04-21T03:58:02;6.90;;;2.83;;
77078;SDS011;66004;55.096;38.760;2023-04-21T04:00:27;27.73;;;3.55;;
77078;SDS011;66004;55.096;38.760;2023-04-21T04:02:53;7.05;;;2.83;;
77078;SDS011;66004;55.096;38.760;2023-04-21T04:05:18;19.35;;;3.40;;
77078;SDS011;66004;55.096;38.760;2023-04-21T04:07:44;9.48;;;2.90;;
77078;SDS011;66004;55.096;38.760;2023-04-21T04:10:09;10.48;;;3.13;;
77078;SDS011;66004;55.096;38.760;2023-04-21T04:12:35;8.70;;;2.63;;
77078;SDS011;66004;55.096;38.760;2023-04-21T04:15:01;10.95;;;3.03;;
77078;SDS011;66004;55.096;38.760;2023-04-21T04:17:27;8.05;;;2.67;;
77078;SDS011;66004;55.096;38.760;2023-04-21T04:19:52;4.80;;;2.45;;
77078;SDS011;66004;55.096;38.760;2023-04-21T04:22:18;7.85;;;2.88;;
77078;SDS011;66004;55.096;38.760;2023-04-21T04:24:43;11.52;;;3.30;;
77078;SDS011;66004;55.096;38.760;2023-04-21T04:27:09;8.68;;;2.50;;
77078;SDS011;66004;55.096;38.760;2023-04-21T04:29:39;10.80;;;2.50;;
77078;SDS011;66004;55.096;38.760;2023-04-21T04:34:33;6.45;;;2.85;;
77078;SDS011;66004;55.096;38.760;2023-04-21T04:37:01;9.13;;;2.83;;
77078;SDS011;66004;55.096;38.760;2023-04-21T04:39:27;44.53;;;5.30;;
77078;SDS011;66004;55.096;38.760;2023-04-21T04:44:18;6.50;;;3.10;;
77078;SDS011;66004;55.096;38.760;2023-04-21T04:49:09;11.65;;;3.40;;
77078;SDS011;66004;55.096;38.760;2023-04-21T04:51:35;7.43;;;2.60;;
77078;SDS011;66004;55.096;38.760;2023-04-21T04:56:26;5.22;;;2.40;;
77078;SDS011;66004;55.096;38.760;2023-04-21T05:01:17;14.75;;;3.47;;
77078;SDS011;66004;55.096;38.760;2023-04-21T05:06:08;9.85;;;2.70;;
77078;SDS011;66004;55.096;38.760;2023-04-21T05:08:35;7.28;;;2.60;;
77078;SDS011;66004;55.096;38.760;2023-04-21T05:13:26;9.70;;;2.70;;
77078;SDS011;66004;55.096;38.760;2023-04-21T05:18:25;15.52;;;3.47;;
77078;SDS011;66004;55.096;38.760;2023-04-21T05:23:15;5.82;;;2.15;;
77078;SDS011;66004;55.096;38.760;2023-04-21T05:25:41;11.63;;;2.35;;
77078;SDS011;66004;55.096;38.760;2023-04-21T05:28:06;6.70;;;2.42;;
77078;SDS011;66004;55.096;38.760;2023-04-21T05:32:57;5.28;;;1.70;;
77078;SDS011;66004;55.096;38.760;2023-04-21T05:37:48;4.63;;;1.95;;
77078;SDS011;66004;55.096;38.760;2023-04-21T05:40:13;10.15;;;2.22;;
77078;SDS011;66004;55.096;38.760;2023-04-21T05:42:39;13.05;;;3.40;;
77078;SDS011;66004;55.096;38.760;2023-04-21T05:45:04;7.28;;;2.33;;
77078;SDS011;66004;55.096;38.760;2023-04-21T05:47:31;7.10;;;2.33;;
77078;SDS011;66004;55.096;38.760;2023-04-21T05:49:56;7.22;;;2.38;;
77078;SDS011;66004;55.096;38.760;2023-04-21T05:52:22;3.92;;;2.25;;
77078;SDS011;66004;55.096;38.760;2023-04-21T05:54:47;5.65;;;1.98;;
77078;SDS011;66004;55.096;38.760;2023-04-21T05:57:13;5.50;;;2.05;;
77078;SDS011;66004;55.096;38.760;2023-04-21T05:59:40;5.00;;;2.45;;
77078;SDS011;66004;55.096;38.760;2023-04-21T06:02:06;9.00;;;2.10;;
77078;SDS011;66004;55.096;38.760;2023-04-21T06:04:32;9.02;;;2.22;;
77078;SDS011;66004;55.096;38.760;2023-04-21T06:06:57;3.20;;;1.65;;
77078;SDS011;66004;55.096;38.760;2023-04-21T06:09:29;9.48;;;1.63;;
77078;SDS011;66004;55.096;38.760;2023-04-21T06:11:54;3.50;;;1.40;;
77078;SDS011;66004;55.096;38.760;2023-04-21T06:14:21;4.20;;;1.27;;
77078;SDS011;66004;55.096;38.760;2023-04-21T06:16:47;7.57;;;1.35;;
77078;SDS011;66004;55.096;38.760;2023-04-21T06:19:13;4.47;;;1.10;;
77078;SDS011;66004;55.096;38.760;2023-04-21T06:21:39;4.55;;;0.98;;
77078;SDS011;66004;55.096;38.760;2023-04-21T06:24:04;2.45;;;1.60;;
77078;SDS011;66004;55.096;38.760;2023-04-21T06:26:30;3.42;;;1.05;;
77078;SDS011;66004;55.096;38.760;2023-04-21T06:28:56;5.68;;;1.10;;
77078;SDS011;66004;55.096;38.760;2023-04-21T06:31:21;5.72;;;1.15;;
77078;SDS011;66004;55.096;38.760;2023-04-21T06:33:47;6.65;;;0.95;;
77078;SDS011;66004;55.096;38.760;2023-04-21T06:36:12;3.42;;;1.10;;
77078;SDS011;66004;55.096;38.760;2023-04-21T06:38:38;7.13;;;1.30;;
77078;SDS011;66004;55.096;38.760;2023-04-21T06:41:05;3.38;;;1.02;;
77078;SDS011;66004;55.096;38.760;2023-04-21T06:43:31;2.08;;;1.00;;
77078;SDS011;66004;55.096;38.760;2023-04-21T06:45:56;4.72;;;1.10;;
77078;SDS011;66004;55.096;38.760;2023-04-21T06:48:22;5.85;;;1.30;;
77078;SDS011;66004;55.096;38.760;2023-04-21T06:50:48;9.20;;;1.63;;
77078;SDS011;66004;55.096;38.760;2023-04-21T06:53:14;9.15;;;1.40;;
77078;SDS011;66004;55.096;38.760;2023-04-21T06:55:42;5.57;;;1.20;;
77078;SDS011;66004;55.096;38.760;2023-04-21T06:58:07;8.20;;;1.42;;
77078;SDS011;66004;55.096;38.760;2023-04-21T07:00:33;5.13;;;1.50;;
77078;SDS011;66004;55.096;38.760;2023-04-21T07:02:58;13.52;;;1.58;;
77078;SDS011;66004;55.096;38.760;2023-04-21T07:05:24;8.40;;;1.25;;
77078;SDS011;66004;55.096;38.760;2023-04-21T07:07:49;7.57;;;1.45;;
77078;SDS011;66004;55.096;38.760;2023-04-21T07:10:15;4.20;;;1.40;;
77078;SDS011;66004;55.096;38.760;2023-04-21T07:12:44;6.53;;;1.20;;
77078;SDS011;66004;55.096;38.760;2023-04-21T07:15:10;7.70;;;1.58;;
77078;SDS011;66004;55.096;38.760;2023-04-21T07:17:36;14.52;;;1.40;;
77078;SDS011;66004;55.096;38.760;2023-04-21T07:20:02;10.95;;;1.75;;
77078;SDS011;66004;55.096;38.760;2023-04-21T07:22:28;2.85;;;1.30;;
77078;SDS011;66004;55.096;38.760;2023-04-21T07:24:53;5.68;;;1.98;;
77078;SDS011;66004;55.096;38.760;2023-04-21T07:27:19;11.82;;;1.75;;
77078;SDS011;66004;55.096;38.760;2023-04-21T07:29:44;8.18;;;2.13;;
77078;SDS011;66004;55.096;38.760;2023-04-21T07:32:10;5.82;;;1.80;;
77078;SDS011;66004;55.096;38.760;2023-04-21T07:34:35;7.72;;;1.20;;
77078;SDS011;66004;55.096;38.760;2023-04-21T07:37:01;4.03;;;1.40;;
77078;SDS011;66004;55.096;38.760;2023-04-21T07:39:26;7.63;;;1.15;;
77078;SDS011;66004;55.096;38.760;2023-04-21T07:41:52;5.45;;;1.42;;
77078;SDS011;66004;55.096;38.760;2023-04-21T07:44:18;6.90;;;1.80;;
77078;SDS011;66004;55.096;38.760;2023-04-21T07:46:43;6.93;;;3.10;;
77078;SDS011;66004;55.096;38.760;2023-04-21T07:49:09;7.38;;;2.10;;
77078;SDS011;66004;55.096;38.760;2023-04-21T07:51:34;7.47;;;2.97;;
77078;SDS011;66004;55.096;38.760;2023-04-21T07:54:00;2.53;;;1.70;;
77078;SDS011;66004;55.096;38.760;2023-04-21T07:56:26;8.73;;;2.22;;
77078;SDS011;66004;55.096;38.760;2023-04-21T07:58:51;5.55;;;1.58;;
77078;SDS011;66004;55.096;38.760;2023-04-21T08:01:17;2.58;;;1.40;;
77078;SDS011;66004;55.096;38.760;2023-04-21T08:03:42;9.57;;;1.88;;
77078;SDS011;66004;55.096;38.760;2023-04-21T08:06:08;4.05;;;1.50;;
77078;SDS011;66004;55.096;38.760;2023-04-21T08:08:33;2.95;;;1.40;;
77078;SDS011;66004;55.096;38.760;2023-04-21T08:10:59;3.72;;;1.42;;
77078;SDS011;66004;55.096;38.760;2023-04-21T08:13:25;4.53;;;1.50;;
77078;SDS011;66004;55.096;38.760;2023-04-21T08:15:51;10.43;;;2.00;;
77078;SDS011;66004;55.096;38.760;2023-04-21T08:18:17;5.07;;;1.70;;
77078;SDS011;66004;55.096;38.760;2023-04-21T08:20:43;4.78;;;1.30;;
77078;SDS011;66004;55.096;38.760;2023-04-21T08:23:09;10.73;;;2.72;;
77078;SDS011;66004;55.096;38.760;2023-04-21T08:25:35;4.88;;;1.63;;
77078;SDS011;66004;55.096;38.760;2023-04-21T08:28:00;2.85;;;1.30;;
77078;SDS011;66004;55.096;38.760;2023-04-21T08:30:26;4.10;;;1.40;;
77078;SDS011;66004;55.096;38.760;2023-04-21T08:32:52;5.78;;;1.83;;
77078;SDS011;66004;55.096;38.760;2023-04-21T08:35:18;11.25;;;1.80;;
77078;SDS011;66004;55.096;38.760;2023-04-21T08:37:43;5.65;;;1.63;;
77078;SDS011;66004;55.096;38.760;2023-04-21T08:40:09;3.28;;;1.50;;
77078;SDS011;66004;55.096;38.760;2023-04-21T08:42:35;40.28;;;14.45;;
77078;SDS011;66004;55.096;38.760;2023-04-21T08:45:02;23.58;;;8.65;;
77078;SDS011;66004;55.096;38.760;2023-04-21T08:47:29;7.53;;;2.47;;
77078;SDS011;66004;55.096;38.760;2023-04-21T08:52:28;24.02;;;7.90;;
77078;SDS011;66004;55.096;38.760;2023-04-21T08:54:54;14.85;;;5.80;;
77078;SDS011;66004;55.096;38.760;2023-04-21T08:57:20;15.80;;;2.80;;
77078;SDS011;66004;55.096;38.760;2023-04-21T08:59:46;7.57;;;2.97;;
77078;SDS011;66004;55.096;38.760;2023-04-21T09:02:15;8.73;;;1.85;;
77078;SDS011;66004;55.096;38.760;2023-04-21T09:04:46;20.67;;;6.53;;
77078;SDS011;66004;55.096;38.760;2023-04-21T09:07:30;10.27;;;3.38;;
77078;SDS011;66004;55.096;38.760;2023-04-21T09:10:00;4.28;;;1.92;;
77078;SDS011;66004;55.096;38.760;2023-04-21T09:12:27;8.55;;;1.73;;
77078;SDS011;66004;55.096;38.760;2023-04-21T09:14:53;5.70;;;1.40;;
77078;SDS011;66004;55.096;38.760;2023-04-21T09:17:29;10.32;;;2.55;;
77078;SDS011;66004;55.096;38.760;2023-04-21T09:20:07;9.60;;;1.88;;
77078;SDS011;66004;55.096;38.760;2023-04-21T09:22:37;2.60;;;1.08;;
77078;SDS011;66004;55.096;38.760;2023-04-21T09:25:03;2.95;;;1.27;;
77078;SDS011;66004;55.096;38.760;2023-04-21T09:27:28;2.65;;;1.20;;
77078;SDS011;66004;55.096;38.760;2023-04-21T09:29:54;3.80;;;1.52;;
77078;SDS011;66004;55.096;38.760;2023-04-21T09:32:19;3.75;;;1.58;;
77078;SDS011;66004;55.096;38.760;2023-04-21T09:34:45;2.33;;;1.20;;
77078;SDS011;66004;55.096;38.760;2023-04-21T09:37:11;4.35;;;1.50;;
77078;SDS011;66004;55.096;38.760;2023-04-21T09:39:38;3.47;;;1.23;;
77078;SDS011;66004;55.096;38.760;2023-04-21T09:42:04;4.22;;;1.20;;
77078;SDS011;66004;55.096;38.760;2023-04-21T09:44:30;5.13;;;1.42;;
77078;SDS011;66004;55.096;38.760;2023-04-21T09:47:01;7.25;;;1.73;;
77078;SDS011;66004;55.096;38.760;2023-04-21T09:49:28;3.03;;;1.20;;
77078;SDS011;66004;55.096;38.760;2023-04-21T09:51:58;4.25;;;1.30;;
77078;SDS011;66004;55.096;38.760;2023-04-21T09:54:27;5.97;;;1.23;;
77078;SDS011;66004;55.096;38.760;2023-04-21T09:56:57;4.90;;;1.08;;
77078;SDS011;66004;55.096;38.760;2023-04-21T09:59:36;10.55;;;1.60;;
77078;SDS011;66004;55.096;38.760;2023-04-21T10:02:05;4.40;;;1.63;;
77078;SDS011;66004;55.096;38.760;2023-04-21T10:04:32;4.47;;;1.65;;
77078;SDS011;66004;55.096;38.760;2023-04-21T10:06:59;4.38;;;1.40;;
77078;SDS011;66004;55.096;38.760;2023-04-21T10:09:26;2.72;;;1.10;;
77078;SDS011;66004;55.096;38.760;2023-04-21T10:11:57;3.60;;;1.20;;
77078;SDS011;66004;55.096;38.760;2023-04-21T10:14:25;7.80;;;1.30;;
77078;SDS011;66004;55.096;38.760;2023-04-21T10:17:12;2.83;;;1.60;;
77078;SDS011;66004;55.096;38.760;2023-04-21T10:19:37;2.67;;;1.10;;
77078;SDS011;66004;55.096;38.760;2023-04-21T10:22:13;7.72;;;1.60;;
77078;SDS011;66004;55.096;38.760;2023-04-21T10:24:38;5.80;;;1.30;;
77078;SDS011;66004;55.096;38.760;2023-04-21T10:27:08;2.35;;;1.30;;
77078;SDS011;66004;55.096;38.760;2023-04-21T10:29:54;3.50;;;1.30;;
77078;SDS011;66004;55.096;38.760;2023-04-21T10:32:41;7.07;;;1.60;;
77078;SDS011;66004;55.096;38.760;2023-04-21T10:35:10;7.55;;;1.30;;
77078;SDS011;66004;55.096;38.760;2023-04-21T10:37:37;7.15;;;1.52;;
77078;SDS011;66004;55.096;38.760;2023-04-21T10:40:05;4.50;;;1.40;;
77078;SDS011;66004;55.096;38.760;2023-04-21T10:42:35;6.22;;;1.13;;
77078;SDS011;66004;55.096;38.760;2023-04-21T10:45:04;6.25;;;1.77;;
77078;SDS011;66004;55.096;38.760;2023-04-21T10:47:39;2.42;;;1.35;;
77078;SDS011;66004;55.096;38.760;2023-04-21T10:52:52;4.88;;;1.65;;
77078;SDS011;66004;55.096;38.760;2023-04-21T10:55:18;2.55;;;1.38;;
77078;SDS011;66004;55.096;38.760;2023-04-21T10:57:45;4.57;;;1.30;;
77078;SDS011;66004;55.096;38.760;2023-04-21T11:00:15;7.80;;;1.23;;
77078;SDS011;66004;55.096;38.760;2023-04-21T11:02:43;7.47;;;1.25;;
77078;SDS011;66004;55.096;38.760;2023-04-21T11:05:18;4.43;;;1.58;;
77078;SDS011;66004;55.096;38.760;2023-04-21T11:07:44;11.02;;;2.17;;
77078;SDS011;66004;55.096;38.760;2023-04-21T11:10:10;8.52;;;1.60;;
77078;SDS011;66004;55.096;38.760;2023-04-21T11:12:36;10.00;;;2.60;;
77078;SDS011;66004;55.096;38.760;2023-04-21T11:15:04;2.08;;;1.05;;
77078;SDS011;66004;55.096;38.760;2023-04-21T11:17:32;2.95;;;0.93;;
77078;SDS011;66004;55.096;38.760;2023-04-21T11:19:58;2.55;;;1.23;;
77078;SDS011;66004;55.096;38.760;2023-04-21T11:22:26;5.10;;;1.30;;
77078;SDS011;66004;55.096;38.760;2023-04-21T11:24:55;4.85;;;1.20;;
77078;SDS011;66004;55.096;38.760;2023-04-21T11:27:22;4.38;;;1.42;;
77078;SDS011;66004;55.096;38.760;2023-04-21T11:29:51;9.23;;;1.50;;
77078;SDS011;66004;55.096;38.760;2023-04-21T11:32:16;9.80;;;1.30;;
77078;SDS011;66004;55.096;38.760;2023-04-21T11:34:42;4.25;;;1.17;;
77078;SDS011;66004;55.096;38.760;2023-04-21T11:37:09;4.10;;;1.35;;
77078;SDS011;66004;55.096;38.760;2023-04-21T11:39:41;3.17;;;1.20;;
77078;SDS011;66004;55.096;38.760;2023-04-21T11:42:07;2.40;;;1.13;;
77078;SDS011;66004;55.096;38.760;2023-04-21T11:47:13;2.80;;;1.20;;
77078;SDS011;66004;55.096;38.760;2023-04-21T11:49:50;3.13;;;1.10;;
77078;SDS011;66004;55.096;38.760;2023-04-21T11:52:21;3.92;;;1.00;;
77078;SDS011;66004;55.096;38.760;2023-04-21T11:54:53;2.60;;;1.02;;
77078;SDS011;66004;55.096;38.760;2023-04-21T11:57:22;1.77;;;1.05;;
77078;SDS011;66004;55.096;38.760;2023-04-21T11:59:49;1.80;;;1.00;;
77078;SDS011;66004;55.096;38.760;2023-04-21T12:05:11;3.72;;;1.88;;
77078;SDS011;66004;55.096;38.760;2023-04-21T12:10:09;2.90;;;1.40;;
77078;SDS011;66004;55.096;38.760;2023-04-21T12:12:36;4.00;;;1.10;;
77078;SDS011;66004;55.096;38.760;2023-04-21T12:15:03;3.25;;;1.13;;
77078;SDS011;66004;55.096;38.760;2023-04-21T12:17:35;5.45;;;1.10;;
77078;SDS011;66004;55.096;38.760;2023-04-21T12:20:05;4.15;;;1.10;;
77078;SDS011;66004;55.096;38.760;2023-04-21T12:22:31;8.07;;;1.05;;
77078;SDS011;66004;55.096;38.760;2023-04-21T12:24:57;4.10;;;1.02;;
77078;SDS011;66004;55.096;38.760;2023-04-21T12:27:23;3.97;;;1.00;;
77078;SDS011;66004;55.096;38.760;2023-04-21T12:29:48;12.95;;;1.23;;
77078;SDS011;66004;55.096;38.760;2023-04-21T12:32:14;1.27;;;0.63;;
77078;SDS011;66004;55.096;38.760;2023-04-21T12:34:39;5.15;;;1.00;;
77078;SDS011;66004;55.096;38.760;2023-04-21T12:37:05;7.70;;;1.60;;
77078;SDS011;66004;55.096;38.760;2023-04-21T12:39:32;11.60;;;1.17;;
77078;SDS011;66004;55.096;38.760;2023-04-21T12:41:57;1.85;;;0.90;;
77078;SDS011;66004;55.096;38.760;2023-04-21T12:44:24;4.38;;;1.27;;
77078;SDS011;66004;55.096;38.760;2023-04-21T12:46:50;3.25;;;0.85;;
77078;SDS011;66004;55.096;38.760;2023-04-21T12:49:16;2.00;;;0.90;;
77078;SDS011;66004;55.096;38.760;2023-04-21T12:51:42;3.08;;;1.00;;
77078;SDS011;66004;55.096;38.760;2023-04-21T12:54:09;2.33;;;0.85;;
77078;SDS011;66004;55.096;38.760;2023-04-21T12:56:35;4.63;;;0.98;;
77078;SDS011;66004;55.096;38.760;2023-04-21T12:59:01;2.55;;;1.10;;
77078;SDS011;66004;55.096;38.760;2023-04-21T13:01:26;2.38;;;1.00;;
77078;SDS011;66004;55.096;38.760;2023-04-21T13:03:52;1.35;;;0.85;;
77078;SDS011;66004;55.096;38.760;2023-04-21T13:06:17;3.35;;;1.73;;
77078;SDS011;66004;55.096;38.760;2023-04-21T13:08:43;6.85;;;1.52;;
77078;SDS011;66004;55.096;38.760;2023-04-21T13:11:09;2.38;;;1.40;;
77078;SDS011;66004;55.096;38.760;2023-04-21T13:13:35;2.13;;;1.00;;
77078;SDS011;66004;55.096;38.760;2023-04-21T13:16:00;2.38;;;1.20;;
77078;SDS011;66004;55.096;38.760;2023-04-21T13:18:26;3.70;;;1.10;;
77078;SDS011;66004;55.096;38.760;2023-04-21T13:20:51;3.42;;;0.70;;
77078;SDS011;66004;55.096;38.760;2023-04-21T13:23:17;4.95;;;1.10;;
77078;SDS011;66004;55.096;38.760;2023-04-21T13:25:42;8.13;;;1.75;;
77078;SDS011;66004;55.096;38.760;2023-04-21T13:28:09;8.35;;;1.40;;
77078;SDS011;66004;55.096;38.760;2023-04-21T13:30:35;2.17;;;0.90;;
77078;SDS011;66004;55.096;38.760;2023-04-21T13:33:01;2.55;;;0.68;;
77078;SDS011;66004;55.096;38.760;2023-04-21T13:35:27;1.55;;;0.90;;
77078;SDS011;66004;55.096;38.760;2023-04-21T13:37:53;5.68;;;1.05;;
77078;SDS011;66004;55.096;38.760;2023-04-21T13:40:19;5.63;;;1.02;;
77078;SDS011;66004;55.096;38.760;2023-04-21T13:42:44;4.18;;;1.00;;
77078;SDS011;66004;55.096;38.760;2023-04-21T13:45:10;5.60;;;0.90;;
77078;SDS011;66004;55.096;38.760;2023-04-21T13:47:36;2.33;;;1.00;;
77078;SDS011;66004;55.096;38.760;2023-04-21T13:50:02;4.75;;;1.20;;
77078;SDS011;66004;55.096;38.760;2023-04-21T13:52:29;4.55;;;1.23;;
77078;SDS011;66004;55.096;38.760;2023-04-21T13:54:54;3.97;;;0.98;;
77078;SDS011;66004;55.096;38.760;2023-04-21T13:57:20;7.57;;;1.33;;
77078;SDS011;66004;55.096;38.760;2023-04-21T13:59:46;7.07;;;1.63;;
77078;SDS011;66004;55.096;38.760;2023-04-21T14:02:11;2.65;;;0.75;;
77078;SDS011;66004;55.096;38.760;2023-04-21T14:04:37;5.55;;;1.42;;
77078;SDS011;66004;55.096;38.760;2023-04-21T14:07:03;6.28;;;2.75;;
77078;SDS011;66004;55.096;38.760;2023-04-21T14:09:29;2.22;;;1.10;;
77078;SDS011;66004;55.096;38.760;2023-04-21T14:11:55;5.07;;;1.48;;
77078;SDS011;66004;55.096;38.760;2023-04-21T14:14:21;12.35;;;1.70;;
77078;SDS011;66004;55.096;38.760;2023-04-21T14:16:47;2.95;;;1.50;;
77078;SDS011;66004;55.096;38.760;2023-04-21T14:19:15;3.20;;;1.02;;
77078;SDS011;66004;55.096;38.760;2023-04-21T14:21:41;5.70;;;1.05;;
77078;SDS011;66004;55.096;38.760;2023-04-21T14:24:07;3.38;;;1.17;;
77078;SDS011;66004;55.096;38.760;2023-04-21T14:26:33;2.38;;;1.27;;
77078;SDS011;66004;55.096;38.760;2023-04-21T14:28:59;5.57;;;1.40;;
77078;SDS011;66004;55.096;38.760;2023-04-21T14:31:28;7.07;;;0.98;;
77078;SDS011;66004;55.096;38.760;2023-04-21T14:33:54;3.53;;;1.00;;
77078;SDS011;66004;55.096;38.760;2023-04-21T14:36:20;3.85;;;1.23;;
77078;SDS011;66004;55.096;38.760;2023-04-21T14:38:45;2.10;;;1.00;;
77078;SDS011;66004;55.096;38.760;2023-04-21T14:41:11;2.50;;;1.10;;
77078;SDS011;66004;55.096;38.760;2023-04-21T14:43:36;3.33;;;1.27;;
77078;SDS011;66004;55.096;38.760;2023-04-21T14:46:02;5.38;;;1.23;;
77078;SDS011;66004;55.096;38.760;2023-04-21T14:48:27;5.88;;;1.35;;
77078;SDS011;66004;55.096;38.760;2023-04-21T14:52:26;3.75;;;1.20;;
77078;SDS011;66004;55.096;38.760;2023-04-21T14:54:52;3.65;;;1.55;;
77078;SDS011;66004;55.096;38.760;2023-04-21T14:57:17;4.35;;;1.20;;
77078;SDS011;66004;55.096;38.760;2023-04-21T14:59:45;4.05;;;1.40;;
77078;SDS011;66004;55.096;38.760;2023-04-21T15:02:11;6.10;;;1.70;;
77078;SDS011;66004;55.096;38.760;2023-04-21T15:04:37;5.38;;;1.45;;
77078;SDS011;66004;55.096;38.760;2023-04-21T15:07:02;3.53;;;1.20;;
77078;SDS011;66004;55.096;38.760;2023-04-21T15:09:28;5.32;;;1.40;;
77078;SDS011;66004;55.096;38.760;2023-04-21T15:11:53;5.57;;;1.17;;
77078;SDS011;66004;55.096;38.760;2023-04-21T15:14:19;4.20;;;1.35;;
77078;SDS011;66004;55.096;38.760;2023-04-21T15:16:45;2.47;;;0.90;;
77078;SDS011;66004;55.096;38.760;2023-04-21T15:19:11;3.83;;;1.25;;
77078;SDS011;66004;55.096;38.760;2023-04-21T15:21:37;4.47;;;1.27;;
77078;SDS011;66004;55.096;38.760;2023-04-21T15:24:03;5.53;;;1.45;;
77078;SDS011;66004;55.096;38.760;2023-04-21T15:26:28;3.08;;;1.20;;
77078;SDS011;66004;55.096;38.760;2023-04-21T15:28:54;6.65;;;1.13;;
77078;SDS011;66004;55.096;38.760;2023-04-21T15:31:21;6.22;;;1.63;;
77078;SDS011;66004;55.096;38.760;2023-04-21T15:33:47;5.80;;;1.13;;
77078;SDS011;66004;55.096;38.760;2023-04-21T15:36:12;2.88;;;1.38;;
77078;SDS011;66004;55.096;38.760;2023-04-21T15:38:38;3.10;;;1.33;;
77078;SDS011;66004;55.096;38.760;2023-04-21T15:41:03;5.00;;;1.00;;
77078;SDS011;66004;55.096;38.760;2023-04-21T15:43:29;5.05;;;1.85;;
77078;SDS011;66004;55.096;38.760;2023-04-21T15:45:55;6.00;;;1.85;;
77078;SDS011;66004;55.096;38.760;2023-04-21T15:48:20;4.50;;;1.60;;